Time;durP1;ratioP1;P1;durP2;ratioP2;P2;SDS_P1;SDS_P2;PMS_P1;PMS_P2;Temp;Humidity;BMP_temperature;BMP_pressure;BME280_temperature;BME280_humidity;BME280_pressure;Samples;Min_cycle;Max_cycle;Signal;HPM_P1;HPM_P2
2021/06/30 00:00:13;;;;;;;12.13;8.73;;;;;;;;;;344758;28;159983;-81
2021/06/30 00:00:26;;;;;;;14.57;9.10;;;;;;;;;;347170;28;90862;-81
2021/06/30 00:00:38;;;;;;;14.40;8.95;;;;;;;;;;347560;28;46041;-82
2021/06/30 00:00:55;;;;;;;12.60;8.40;;;;;;;;;;344022;28;137696;-82
2021/06/30 00:01:13;;;;;;;12.00;8.52;;;;;;;;;;344112;28;136915;-79
2021/06/30 00:01:26;;;;;;;11.45;8.60;;;;;;;;;;346052;28;91186;-79
2021/06/30 00:01:44;;;;;;;12.20;8.70;;;;;;;;;;348085;28;136958;-80
2021/06/30 00:01:56;;;;;;;13.43;8.70;;;;;;;;;;342523;28;67876;-80
2021/06/30 00:02:13;;;;;;;13.32;8.75;;;;;;;;;;340071;28;137895;-80
2021/06/30 00:02:26;;;;;;;12.58;8.42;;;;;;;;;;340081;28;46507;-80
2021/06/30 00:02:39;;;;;;;13.00;7.85;;;;;;;;;;338611;29;46193;-80
2021/06/30 00:02:56;;;;;;;12.23;7.90;;;;;;;;;;336021;29;136902;-80
2021/06/30 00:03:09;;;;;;;12.23;8.00;;;;;;;;;;337118;29;66458;-80
2021/06/30 00:03:26;;;;;;;12.60;7.97;;;;;;;;;;334698;29;137771;-80
2021/06/30 00:03:39;;;;;;;12.38;8.18;;;;;;;;;;334457;29;69010;-81
2021/06/30 00:03:56;;;;;;;14.38;8.82;;;;;;;;;;334024;29;137700;-80
2021/06/30 00:04:13;;;;;;;15.55;8.02;;;;;;;;;;334873;29;135003;-81
2021/06/30 00:04:26;;;;;;;13.52;7.35;;;;;;;;;;335731;29;44899;-81
2021/06/30 00:04:38;;;;;;;12.85;7.30;;;;;;;;;;339324;28;67813;-80
2021/06/30 00:04:56;;;;;;;13.27;7.95;;;;;;;;;;339400;28;159819;-80
2021/06/30 00:05:13;;;;;;;14.07;8.35;;;;;;;;;;341132;28;137677;-80
2021/06/30 00:05:26;;;;;;;13.77;8.43;;;;;;;;;;341934;28;45387;-81
2021/06/30 00:05:43;;;;;;;12.77;8.20;;;;;;;;;;339782;28;137664;-81
2021/06/30 00:05:55;;;;;;;13.50;8.28;;;;;;;;;;342975;28;45529;-80
2021/06/30 00:06:08;;;;;;;12.90;7.32;;;;;;;;;;343468;28;46129;-81
2021/06/30 00:06:26;;;;;;;11.57;6.75;;;;;;;;;;341217;28;137748;-81
2021/06/30 00:06:43;;;;;;;12.70;7.90;;;;;;;;;;344118;28;136890;-81
2021/06/30 00:07:00;;;;;;;11.70;7.65;;;;;;;;;;343985;28;137868;-80
2021/06/30 00:07:12;;;;;;;10.48;6.53;;;;;;;;;;345402;28;69102;-80
2021/06/30 00:07:30;;;;;;;10.27;6.95;;;;;;;;;;347237;28;137744;-80
2021/06/30 00:07:42;;;;;;;12.48;8.05;;;;;;;;;;347836;28;68925;-80
2021/06/30 00:08:00;;;;;;;13.98;7.18;;;;;;;;;;343914;28;134983;-80
2021/06/30 00:08:17;;;;;;;14.00;6.82;;;;;;;;;;344111;28;137581;-80
2021/06/30 00:08:29;;;;;;;13.15;7.47;;;;;;;;;;343247;28;45437;-80
2021/06/30 00:08:48;;;;;;;11.85;7.25;;;;;;;;;;340110;28;137585;-80
2021/06/30 00:09:06;;;;;;;11.52;6.95;;;;;;;;;;339919;28;136719;-81
2021/06/30 00:09:23;;;;;;;11.65;7.68;;;;;;;;;;339693;28;137748;-80
2021/06/30 00:09:35;;;;;;;13.82;7.57;;;;;;;;;;340651;28;45417;-80
2021/06/30 00:09:53;;;;;;;14.45;8.05;;;;;;;;;;342629;28;137731;-81
2021/06/30 00:10:07;;;;;;;12.95;8.43;;;;;;;;;;346309;28;68554;-80
2021/06/30 00:10:24;;;;;;;11.95;7.65;;;;;;;;;;341823;28;160611;-80
2021/06/30 00:10:37;;;;;;;11.27;7.30;;;;;;;;;;345233;28;69104;-79
2021/06/30 00:10:50;;;;;;;12.55;7.45;;;;;;;;;;343979;28;67670;-80
2021/06/30 00:11:02;;;;;;;12.66;7.50;;;;;;;;;;343471;28;46176;-81
2021/06/30 00:11:16;;;;;;;12.52;7.05;;;;;;;;;;342404;28;68017;-80
2021/06/30 00:11:28;;;;;;;10.77;6.63;;;;;;;;;;344076;28;68935;-81
2021/06/30 00:11:41;;;;;;;11.85;7.28;;;;;;;;;;341277;28;68905;-81
2021/06/30 00:11:53;;;;;;;12.90;7.97;;;;;;;;;;337998;29;46029;-80
2021/06/30 00:12:11;;;;;;;13.26;8.20;;;;;;;;;;334030;29;161036;-81
2021/06/30 00:12:28;;;;;;;12.45;7.80;;;;;;;;;;334960;29;137094;-80
2021/06/30 00:12:41;;;;;;;11.07;7.63;;;;;;;;;;337814;29;68965;-81
2021/06/30 00:12:53;;;;;;;12.23;7.95;;;;;;;;;;339261;29;46066;-81
2021/06/30 00:13:10;;;;;;;12.52;8.02;;;;;;;;;;335333;28;159459;-80
2021/06/30 00:13:28;;;;;;;12.43;8.30;;;;;;;;;;336829;28;137746;-81
2021/06/30 00:13:46;;;;;;;12.45;8.43;;;;;;;;;;336155;29;136593;-79
2021/06/30 00:13:59;;;;;;;12.50;8.57;;;;;;;;;;338350;28;91202;-80
2021/06/30 00:14:16;;;;;;;12.20;8.70;;;;;;;;;;336343;29;137650;-81
2021/06/30 00:14:33;;;;;;;12.23;8.18;;;;;;;;;;336538;29;137591;-80
2021/06/30 00:14:46;;;;;;;12.65;8.13;;;;;;;;;;342293;28;46124;-80
2021/06/30 00:15:05;;;;;;;13.32;8.38;;;;;;;;;;341609;28;137677;-81
2021/06/30 00:15:28;;;;;;;12.30;8.05;;;;;;;;;;341142;28;160593;-81
2021/06/30 00:15:45;;;;;;;14.48;8.15;;;;;;;;;;343012;28;137229;-81
2021/06/30 00:15:58;;;;;;;15.73;8.63;;;;;;;;;;340681;28;67910;-80
2021/06/30 00:16:18;;;;;;;14.30;8.15;;;;;;;;;;338959;28;137673;-79
2021/06/30 00:16:32;;;;;;;12.85;7.93;;;;;;;;;;335416;29;137605;-79
2021/06/30 00:16:50;;;;;;;11.55;7.75;;;;;;;;;;337311;28;160443;-80
2021/06/30 00:17:08;;;;;;;12.35;7.80;;;;;;;;;;339188;28;137533;-81
2021/06/30 00:17:26;;;;;;;11.23;6.43;;;;;;;;;;339176;28;137701;-80
2021/06/30 00:17:44;;;;;;;12.00;7.22;;;;;;;;;;339064;28;136951;-80
2021/06/30 00:17:57;;;;;;;13.00;8.02;;;;;;;;;;341495;28;65977;-80
2021/06/30 00:18:14;;;;;;;12.82;8.45;;;;;;;;;;342005;28;135382;-80
2021/06/30 00:18:26;;;;;;;13.95;8.75;;;;;;;;;;345136;28;46108;-80
2021/06/30 00:18:44;;;;;;;15.45;8.18;;;;;;;;;;346613;28;137743;-81
2021/06/30 00:18:56;;;;;;;14.00;7.50;;;;;;;;;;350735;28;45408;-81
2021/06/30 00:19:09;;;;;;;13.30;7.90;;;;;;;;;;347074;28;68232;-81
2021/06/30 00:19:22;;;;;;;13.07;8.20;;;;;;;;;;340343;28;69014;-81
2021/06/30 00:19:39;;;;;;;13.00;7.95;;;;;;;;;;337836;28;137304;-81
2021/06/30 00:19:57;;;;;;;11.48;7.85;;;;;;;;;;338202;28;137645;-81
2021/06/30 00:20:14;;;;;;;11.80;7.65;;;;;;;;;;336509;29;135281;-81
2021/06/30 00:20:26;;;;;;;12.23;7.53;;;;;;;;;;336247;29;69068;-81
2021/06/30 00:20:39;;;;;;;11.75;7.93;;;;;;;;;;336435;29;69431;-81
2021/06/30 00:20:57;;;;;;;10.82;8.02;;;;;;;;;;333908;29;137827;-81
2021/06/30 00:21:14;;;;;;;12.38;8.02;;;;;;;;;;337571;28;137571;-81
2021/06/30 00:21:28;;;;;;;13.23;7.85;;;;;;;;;;336864;29;91836;-80
2021/06/30 00:21:46;;;;;;;11.43;7.05;;;;;;;;;;335179;29;137632;-81
2021/06/30 00:21:58;;;;;;;10.30;7.03;;;;;;;;;;335842;29;46063;-81
2021/06/30 00:22:19;;;;;;;11.07;7.32;;;;;;;;;;333227;29;137700;-81
2021/06/30 00:22:36;;;;;;;11.95;7.55;;;;;;;;;;337962;28;137367;-81
2021/06/30 00:22:48;;;;;;;12.46;7.40;;;;;;;;;;338429;29;46194;-80
2021/06/30 00:23:01;;;;;;;13.27;7.57;;;;;;;;;;337183;29;44921;-81
2021/06/30 00:23:13;;;;;;;12.27;7.85;;;;;;;;;;336151;29;69016;-81
2021/06/30 00:23:31;;;;;;;10.15;7.60;;;;;;;;;;337129;28;136909;-81
2021/06/30 00:23:45;;;;;;;10.75;7.60;;;;;;;;;;337145;29;46131;-81
2021/06/30 00:24:03;;;;;;;12.62;7.84;;;;;;;;;;337728;28;159571;-81
2021/06/30 00:24:20;;;;;;;14.05;8.05;;;;;;;;;;339210;28;137645;-81
2021/06/30 00:24:33;;;;;;;13.38;7.95;;;;;;;;;;339778;29;46104;-81
2021/06/30 00:24:45;;;;;;;12.30;7.38;;;;;;;;;;339534;28;69019;-81
2021/06/30 00:24:58;;;;;;;11.88;6.95;;;;;;;;;;342482;28;44972;-81
2021/06/30 00:25:17;;;;;;;10.02;6.00;;;;;;;;;;338792;28;136911;-81
2021/06/30 00:25:30;;;;;;;9.75;6.28;;;;;;;;;;338299;29;90808;-81
2021/06/30 00:25:43;;;;;;;11.68;7.38;;;;;;;;;;340130;28;68973;-81
2021/06/30 00:25:55;;;;;;;10.48;7.30;;;;;;;;;;343078;28;68956;-81
2021/06/30 00:26:07;;;;;;;10.52;7.22;;;;;;;;;;338147;29;43751;-82
2021/06/30 00:26:24;;;;;;;12.50;7.25;;;;;;;;;;335264;29;137739;-80
2021/06/30 00:26:37;;;;;;;10.60;6.15;;;;;;;;;;337686;29;44907;-81
2021/06/30 00:26:50;;;;;;;8.25;5.45;;;;;;;;;;337383;29;68848;-80
2021/06/30 00:27:02;;;;;;;8.52;5.65;;;;;;;;;;335795;29;45945;-80
2021/06/30 00:27:14;;;;;;;10.52;6.55;;;;;;;;;;333901;29;68858;-81
2021/06/30 00:27:27;;;;;;;10.98;6.78;;;;;;;;;;331247;29;67798;-81
2021/06/30 00:27:44;;;;;;;10.65;7.18;;;;;;;;;;330527;29;137937;-81
2021/06/30 00:27:57;;;;;;;11.40;7.68;;;;;;;;;;333663;29;67814;-81
2021/06/30 00:28:14;;;;;;;11.88;7.65;;;;;;;;;;336289;29;136952;-80
2021/06/30 00:28:27;;;;;;;11.95;7.03;;;;;;;;;;334994;29;68449;-80
2021/06/30 00:28:44;;;;;;;10.25;5.85;;;;;;;;;;336539;29;137675;-81
2021/06/30 00:28:57;;;;;;;8.40;5.85;;;;;;;;;;338784;29;67791;-81
2021/06/30 00:29:14;;;;;;;10.38;7.05;;;;;;;;;;339733;28;136855;-81
2021/06/30 00:29:27;;;;;;;11.77;7.50;;;;;;;;;;344494;28;69113;-81
2021/06/30 00:29:44;;;;;;;11.15;7.50;;;;;;;;;;345731;28;137615;-81
2021/06/30 00:30:01;;;;;;;11.77;7.47;;;;;;;;;;345659;28;136846;-81
2021/06/30 00:30:14;;;;;;;11.48;7.50;;;;;;;;;;349039;28;45413;-81
2021/06/30 00:30:26;;;;;;;8.52;6.20;;;;;;;;;;343879;28;67760;-81
2021/06/30 00:30:39;;;;;;;6.80;4.88;;;;;;;;;;346380;28;46112;-80
2021/06/30 00:30:57;;;;;;;9.27;5.47;;;;;;;;;;341762;28;135501;-81
2021/06/30 00:31:09;;;;;;;10.15;6.47;;;;;;;;;;338945;29;69104;-81
2021/06/30 00:31:22;;;;;;;10.88;6.80;;;;;;;;;;339714;29;46110;-80
2021/06/30 00:31:35;;;;;;;12.32;6.97;;;;;;;;;;338290;29;92004;-80
2021/06/30 00:31:52;;;;;;;12.88;7.15;;;;;;;;;;335618;29;160682;-81
2021/06/30 00:32:10;;;;;;;12.20;7.22;;;;;;;;;;336424;29;137623;-79
2021/06/30 00:32:22;;;;;;;10.48;7.47;;;;;;;;;;337256;29;44888;-81
2021/06/30 00:32:39;;;;;;;10.07;7.50;;;;;;;;;;333000;29;160443;-81
2021/06/30 00:32:57;;;;;;;11.43;7.00;;;;;;;;;;337852;28;137561;-81
2021/06/30 00:33:14;;;;;;;11.40;6.97;;;;;;;;;;338500;28;159450;-80
2021/06/30 00:33:31;;;;;;;12.32;7.70;;;;;;;;;;344224;28;137830;-80
2021/06/30 00:33:44;;;;;;;11.85;7.35;;;;;;;;;;343681;28;44804;-81
2021/06/30 00:34:03;;;;;;;10.85;7.18;;;;;;;;;;340509;28;137581;-80
2021/06/30 00:34:20;;;;;;;10.88;7.50;;;;;;;;;;341399;28;137554;-80
2021/06/30 00:34:32;;;;;;;11.30;7.47;;;;;;;;;;339222;29;46044;-81
2021/06/30 00:34:49;;;;;;;12.13;7.30;;;;;;;;;;335108;29;160723;-80
2021/06/30 00:35:07;;;;;;;11.38;7.07;;;;;;;;;;335738;29;137862;-80
2021/06/30 00:35:24;;;;;;;10.70;6.93;;;;;;;;;;335575;29;160674;-81
2021/06/30 00:35:37;;;;;;;11.18;7.10;;;;;;;;;;335153;29;68941;-81
2021/06/30 00:35:49;;;;;;;9.02;5.97;;;;;;;;;;339599;29;42721;-80
2021/06/30 00:36:06;;;;;;;9.40;5.45;;;;;;;;;;336440;29;136971;-81
2021/06/30 00:36:24;;;;;;;11.95;6.97;;;;;;;;;;336419;29;136910;-80
2021/06/30 00:36:44;;;;;;;12.32;7.90;;;;;;;;;;343211;28;137694;-81
2021/06/30 00:36:56;;;;;;;12.00;8.15;;;;;;;;;;337862;28;139551;-80
2021/06/30 00:37:09;;;;;;;11.85;8.15;;;;;;;;;;339816;29;44952;-80
2021/06/30 00:37:30;;;;;;;11.27;7.78;;;;;;;;;;335959;29;160589;-81
2021/06/30 00:37:42;;;;;;;11.32;7.07;;;;;;;;;;341392;28;69026;-80
2021/06/30 00:37:59;;;;;;;10.90;6.72;;;;;;;;;;339107;28;137025;-81
2021/06/30 00:38:12;;;;;;;10.77;7.00;;;;;;;;;;340387;28;67497;-81
2021/06/30 00:38:29;;;;;;;10.75;7.10;;;;;;;;;;339031;28;137595;-81
2021/06/30 00:38:41;;;;;;;10.02;6.68;;;;;;;;;;342482;28;45412;-80
2021/06/30 00:38:59;;;;;;;8.23;5.47;;;;;;;;;;341688;28;137727;-81
2021/06/30 00:39:21;;;;;;;8.78;6.02;;;;;;;;;;343685;28;160523;-80
2021/06/30 00:39:38;;;;;;;9.52;6.65;;;;;;;;;;343674;28;137256;-81
2021/06/30 00:39:50;;;;;;;9.68;6.80;;;;;;;;;;347910;28;45096;-82
2021/06/30 00:40:09;;;;;;;9.77;6.95;;;;;;;;;;344291;28;137567;-80
2021/06/30 00:40:21;;;;;;;10.04;6.60;;;;;;;;;;347146;28;68972;-79
2021/06/30 00:40:38;;;;;;;10.20;6.32;;;;;;;;;;343232;28;137682;-79
2021/06/30 00:40:56;;;;;;;9.57;6.40;;;;;;;;;;342248;28;160589;-79
2021/06/30 00:41:13;;;;;;;9.00;6.45;;;;;;;;;;343135;28;137739;-80
2021/06/30 00:41:31;;;;;;;10.20;6.53;;;;;;;;;;343404;28;137816;-79
2021/06/30 00:41:44;;;;;;;10.95;6.57;;;;;;;;;;346918;28;68897;-79
2021/06/30 00:42:01;;;;;;;11.05;6.75;;;;;;;;;;348718;27;137764;-80
2021/06/30 00:42:18;;;;;;;9.90;6.88;;;;;;;;;;348663;27;137546;-80
2021/06/30 00:42:31;;;;;;;9.85;7.15;;;;;;;;;;346888;28;46119;-80
2021/06/30 00:42:44;;;;;;;9.63;6.90;;;;;;;;;;344279;28;68934;-80
2021/06/30 00:42:56;;;;;;;9.92;6.54;;;;;;;;;;340892;28;45449;-79
2021/06/30 00:43:08;;;;;;;8.98;5.90;;;;;;;;;;340630;28;45418;-80
2021/06/30 00:43:26;;;;;;;10.25;6.18;;;;;;;;;;337938;28;137635;-80
2021/06/30 00:43:38;;;;;;;10.82;6.70;;;;;;;;;;336193;29;69035;-80
2021/06/30 00:43:50;;;;;;;10.10;6.50;;;;;;;;;;336800;29;46078;-80
2021/06/30 00:44:07;;;;;;;9.95;6.43;;;;;;;;;;334021;29;138840;-80
2021/06/30 00:44:25;;;;;;;10.18;6.85;;;;;;;;;;333057;29;159889;-80
2021/06/30 00:44:40;;;;;;;10.82;7.00;;;;;;;;;;335861;29;45428;-80
2021/06/30 00:44:57;;;;;;;10.72;6.88;;;;;;;;;;338027;28;160739;-81
2021/06/30 00:45:16;;;;;;;11.43;6.70;;;;;;;;;;340278;28;137644;-80
2021/06/30 00:45:33;;;;;;;9.98;6.53;;;;;;;;;;340319;28;136826;-79
2021/06/30 00:45:51;;;;;;;8.70;6.40;;;;;;;;;;340489;28;135343;-80
2021/06/30 00:46:08;;;;;;;10.13;6.53;;;;;;;;;;340465;28;137740;-80
2021/06/30 00:46:31;;;;;;;10.80;6.60;;;;;;;;;;339685;29;46040;-80
2021/06/30 00:46:49;;;;;;;10.90;6.50;;;;;;;;;;342111;28;137266;-80
2021/06/30 00:47:02;;;;;;;10.80;6.50;;;;;;;;;;344471;28;67697;-80
2021/06/30 00:47:21;;;;;;;10.85;6.25;;;;;;;;;;341628;28;137743;-80
2021/06/30 00:47:38;;;;;;;9.27;5.70;;;;;;;;;;341851;28;136792;-80
2021/06/30 00:47:50;;;;;;;9.00;5.53;;;;;;;;;;345176;28;45062;-80
2021/06/30 00:48:03;;;;;;;7.63;5.10;;;;;;;;;;341640;28;68866;-80
2021/06/30 00:48:20;;;;;;;7.85;5.53;;;;;;;;;;340373;28;137702;-80
2021/06/30 00:48:39;;;;;;;9.48;5.78;;;;;;;;;;341744;28;138292;-80
2021/06/30 00:48:52;;;;;;;7.72;5.05;;;;;;;;;;339534;28;92058;-80
2021/06/30 00:49:06;;;;;;;7.00;4.80;;;;;;;;;;337707;29;68943;-80
2021/06/30 00:49:18;;;;;;;7.32;5.07;;;;;;;;;;335572;29;92018;-79
2021/06/30 00:49:36;;;;;;;8.35;5.50;;;;;;;;;;333837;29;136227;-78
2021/06/30 00:49:49;;;;;;;9.18;5.72;;;;;;;;;;333798;29;68877;-81
2021/06/30 00:50:07;;;;;;;9.65;5.88;;;;;;;;;;333220;29;137921;-79
2021/06/30 00:50:24;;;;;;;9.18;5.40;;;;;;;;;;332455;29;138399;-79
2021/06/30 00:50:42;;;;;;;7.90;4.97;;;;;;;;;;330787;29;158646;-79
2021/06/30 00:50:54;;;;;;;8.52;5.35;;;;;;;;;;331380;29;67811;-79
2021/06/30 00:51:11;;;;;;;9.43;5.75;;;;;;;;;;331231;29;136961;-79
2021/06/30 00:51:28;;;;;;;8.32;5.88;;;;;;;;;;332054;29;160836;-79
2021/06/30 00:51:46;;;;;;;8.82;5.75;;;;;;;;;;334978;28;137609;-79
2021/06/30 00:51:58;;;;;;;8.82;5.55;;;;;;;;;;337487;29;44971;-80
2021/06/30 00:52:15;;;;;;;9.43;5.72;;;;;;;;;;335234;29;136875;-80
2021/06/30 00:52:28;;;;;;;10.32;6.10;;;;;;;;;;334551;29;45464;-79
2021/06/30 00:52:40;;;;;;;10.68;6.00;;;;;;;;;;333883;29;68856;-80
2021/06/30 00:52:58;;;;;;;9.60;5.60;;;;;;;;;;334428;29;136875;-79
2021/06/30 00:53:15;;;;;;;9.30;5.55;;;;;;;;;;333960;29;137615;-79
2021/06/30 00:53:32;;;;;;;8.57;5.63;;;;;;;;;;333871;29;137596;-79
2021/06/30 00:53:49;;;;;;;8.18;4.85;;;;;;;;;;335293;29;136929;-78
2021/06/30 00:54:07;;;;;;;8.68;5.07;;;;;;;;;;341769;28;137642;-79
2021/06/30 00:54:24;;;;;;;10.70;5.72;;;;;;;;;;342923;27;137613;-79
2021/06/30 00:54:41;;;;;;;10.98;5.38;;;;;;;;;;348700;27;137806;-79
2021/06/30 00:54:53;;;;;;;9.40;5.40;;;;;;;;;;351696;27;69042;-79
2021/06/30 00:55:06;;;;;;;9.13;5.47;;;;;;;;;;346784;28;46072;-79
2021/06/30 00:55:23;;;;;;;10.10;5.63;;;;;;;;;;344476;28;137754;-79
2021/06/30 00:55:41;;;;;;;9.98;5.70;;;;;;;;;;344527;28;138731;-79
2021/06/30 00:55:53;;;;;;;9.02;5.80;;;;;;;;;;342310;28;46153;-80
2021/06/30 00:56:11;;;;;;;9.02;5.63;;;;;;;;;;339174;28;136908;-79
2021/06/30 00:56:27;;;;;;;9.30;5.88;;;;;;;;;;336366;29;68994;-79
2021/06/30 00:56:39;;;;;;;9.02;6.00;;;;;;;;;;331475;29;137871;-79
2021/06/30 00:56:52;;;;;;;9.65;5.60;;;;;;;;;;333067;29;45331;-79
2021/06/30 00:57:04;;;;;;;9.77;5.60;;;;;;;;;;333215;29;69025;-80
2021/06/30 00:57:18;;;;;;;8.50;5.63;;;;;;;;;;336333;29;68959;-79
2021/06/30 00:57:30;;;;;;;9.13;5.75;;;;;;;;;;336407;29;69002;-78
2021/06/30 00:57:47;;;;;;;10.45;5.90;;;;;;;;;;333103;29;159976;-79
2021/06/30 00:58:00;;;;;;;10.65;6.20;;;;;;;;;;343389;28;45033;-80
2021/06/30 00:58:17;;;;;;;10.88;6.50;;;;;;;;;;338888;28;137669;-79
2021/06/30 00:58:34;;;;;;;9.75;6.38;;;;;;;;;;340457;28;136800;-80
2021/06/30 00:58:56;;;;;;;8.75;6.20;;;;;;;;;;340947;28;136968;-80
2021/06/30 00:59:13;;;;;;;9.82;5.95;;;;;;;;;;344645;28;137455;-80
2021/06/30 00:59:26;;;;;;;10.00;5.78;;;;;;;;;;349283;28;46129;-80
2021/06/30 00:59:39;;;;;;;8.57;5.85;;;;;;;;;;342864;28;69516;-78
2021/06/30 00:59:56;;;;;;;9.25;6.45;;;;;;;;;;340344;28;136840;-80
2021/06/30 01:00:13;;;;;;;9.63;6.15;;;;;;;;;;344080;28;137641;-79
2021/06/30 01:00:31;;;;;;;11.00;5.80;;;;;;;;;;344254;28;136916;-79
2021/06/30 01:00:43;;;;;;;10.98;5.82;;;;;;;;;;347784;28;44880;-81
2021/06/30 01:01:00;;;;;;;9.20;4.75;;;;;;;;;;343034;28;135488;-79
2021/06/30 01:01:13;;;;;;;10.57;4.80;;;;;;;;;;343720;28;44449;-79
2021/06/30 01:01:30;;;;;;;10.38;5.85;;;;;;;;;;340308;28;137735;-79
2021/06/30 01:01:43;;;;;;;8.10;5.90;;;;;;;;;;343528;28;68376;-79
2021/06/30 01:02:00;;;;;;;7.25;5.88;;;;;;;;;;341024;28;160527;-79
2021/06/30 01:02:13;;;;;;;8.77;5.90;;;;;;;;;;341517;28;68914;-79
2021/06/30 01:02:30;;;;;;;9.88;6.10;;;;;;;;;;337914;28;160547;-79
2021/06/30 01:02:47;;;;;;;8.98;6.20;;;;;;;;;;339145;28;136862;-79
2021/06/30 01:03:04;;;;;;;8.05;5.80;;;;;;;;;;339125;28;137771;-78
2021/06/30 01:03:17;;;;;;;8.25;5.90;;;;;;;;;;343478;28;68973;-78
2021/06/30 01:03:29;;;;;;;8.73;6.15;;;;;;;;;;345152;28;45409;-79
2021/06/30 01:03:50;;;;;;;8.48;6.00;;;;;;;;;;344258;28;137929;-78
2021/06/30 01:04:07;;;;;;;9.60;6.38;;;;;;;;;;346021;28;137379;-79
2021/06/30 01:04:24;;;;;;;9.20;6.22;;;;;;;;;;346436;28;158363;-79
2021/06/30 01:04:42;;;;;;;8.93;5.93;;;;;;;;;;347166;28;137762;-79
2021/06/30 01:04:54;;;;;;;10.18;5.97;;;;;;;;;;345133;28;45407;-79
2021/06/30 01:05:06;;;;;;;10.45;5.95;;;;;;;;;;340227;28;67797;-79
2021/06/30 01:05:19;;;;;;;9.60;6.13;;;;;;;;;;336978;29;46075;-80
2021/06/30 01:05:36;;;;;;;9.82;6.32;;;;;;;;;;333915;29;137275;-80
2021/06/30 01:05:53;;;;;;;10.57;6.28;;;;;;;;;;335309;29;137452;-79
2021/06/30 01:06:06;;;;;;;10.55;6.07;;;;;;;;;;334598;29;42964;-80
2021/06/30 01:06:23;;;;;;;10.45;6.45;;;;;;;;;;332625;29;136409;-80
2021/06/30 01:06:41;;;;;;;9.55;6.25;;;;;;;;;;333932;29;136996;-80
2021/06/30 01:06:53;;;;;;;8.93;6.03;;;;;;;;;;336153;29;65882;-79
2021/06/30 01:07:10;;;;;;;8.88;5.95;;;;;;;;;;338546;28;137695;-80
2021/06/30 01:07:22;;;;;;;10.65;6.28;;;;;;;;;;343909;28;68030;-79
2021/06/30 01:07:35;;;;;;;11.02;6.22;;;;;;;;;;339591;28;43191;-80
2021/06/30 01:07:47;;;;;;;11.07;6.20;;;;;;;;;;335001;29;66141;-80
2021/06/30 01:08:01;;;;;;;11.30;5.88;;;;;;;;;;333200;29;46079;-79
2021/06/30 01:08:19;;;;;;;9.15;5.75;;;;;;;;;;333989;29;137637;-79
2021/06/30 01:08:36;;;;;;;9.07;6.30;;;;;;;;;;334449;29;159928;-80
2021/06/30 01:08:53;;;;;;;9.27;6.30;;;;;;;;;;335258;29;136877;-79
2021/06/30 01:09:11;;;;;;;10.30;6.07;;;;;;;;;;336172;29;137619;-80
2021/06/30 01:09:31;;;;;;;10.13;5.95;;;;;;;;;;336716;28;137353;-80
2021/06/30 01:09:43;;;;;;;10.02;6.20;;;;;;;;;;337872;28;65892;-80
2021/06/30 01:10:01;;;;;;;10.88;6.68;;;;;;;;;;340514;28;135311;-80
2021/06/30 01:10:13;;;;;;;9.88;6.43;;;;;;;;;;341150;28;44453;-79
2021/06/30 01:10:26;;;;;;;8.18;5.93;;;;;;;;;;336287;29;69026;-80
2021/06/30 01:10:43;;;;;;;7.80;6.07;;;;;;;;;;333989;29;137525;-80
2021/06/30 01:11:01;;;;;;;7.82;6.05;;;;;;;;;;333225;29;159338;-80
2021/06/30 01:11:18;;;;;;;8.07;5.63;;;;;;;;;;333800;29;136901;-80
2021/06/30 01:11:35;;;;;;;9.63;6.38;;;;;;;;;;335188;29;136864;-80
2021/06/30 01:11:53;;;;;;;9.40;6.45;;;;;;;;;;341700;28;136999;-78
2021/06/30 01:12:10;;;;;;;8.82;6.28;;;;;;;;;;343664;28;137671;-80
2021/06/30 01:12:23;;;;;;;8.50;6.18;;;;;;;;;;346139;28;45427;-79
2021/06/30 01:12:40;;;;;;;9.88;6.55;;;;;;;;;;347211;28;137774;-79
2021/06/30 01:12:57;;;;;;;10.98;6.80;;;;;;;;;;345814;28;138323;-78
2021/06/30 01:13:09;;;;;;;10.15;6.13;;;;;;;;;;349044;28;46207;-79
2021/06/30 01:13:27;;;;;;;9.80;5.57;;;;;;;;;;346061;28;136757;-79
2021/06/30 01:13:39;;;;;;;9.65;5.65;;;;;;;;;;343720;28;44898;-79
2021/06/30 01:13:57;;;;;;;8.35;5.30;;;;;;;;;;340388;28;137554;-80
2021/06/30 01:14:27;;;;;;;8.65;5.72;;;;;;;;;;340143;28;137596;-79
2021/06/30 01:14:44;;;;;;;11.25;6.38;;;;;;;;;;344649;28;137680;-78
2021/06/30 01:15:05;;;;;;;9.90;6.03;;;;;;;;;;343249;28;137020;-79
2021/06/30 01:15:22;;;;;;;8.82;5.97;;;;;;;;;;344586;28;136663;-79
2021/06/30 01:15:56;;;;;;;9.40;6.00;;;;;;;;;;344082;28;44963;-78
2021/06/30 01:16:14;;;;;;;10.10;6.13;;;;;;;;;;345827;28;137288;-78
2021/06/30 01:16:31;;;;;;;9.18;6.00;;;;;;;;;;345008;28;160736;-79
2021/06/30 01:16:50;;;;;;;9.85;6.18;;;;;;;;;;345904;28;137640;-79
2021/06/30 01:17:04;;;;;;;10.73;6.30;;;;;;;;;;342220;28;91837;-79
2021/06/30 01:17:16;;;;;;;9.43;5.50;;;;;;;;;;340625;28;68965;-79
2021/06/30 01:17:29;;;;;;;7.63;4.32;;;;;;;;;;338176;29;70203;-80
2021/06/30 01:17:47;;;;;;;8.40;5.20;;;;;;;;;;334538;29;157843;-79
2021/06/30 01:17:59;;;;;;;10.02;5.93;;;;;;;;;;337220;29;92187;-80
2021/06/30 01:18:19;;;;;;;9.98;5.43;;;;;;;;;;335494;29;136508;-80
2021/06/30 01:18:37;;;;;;;11.73;6.43;;;;;;;;;;335525;29;137558;-79
2021/06/30 01:18:49;;;;;;;11.60;6.47;;;;;;;;;;335379;29;69019;-80
2021/06/30 01:19:01;;;;;;;10.77;6.47;;;;;;;;;;334108;29;46063;-78
2021/06/30 01:19:19;;;;;;;9.68;6.53;;;;;;;;;;333371;29;136467;-80
2021/06/30 01:19:37;;;;;;;9.27;6.20;;;;;;;;;;336562;29;137724;-80
2021/06/30 01:19:50;;;;;;;10.63;6.22;;;;;;;;;;334727;29;66771;-80
2021/06/30 01:20:07;;;;;;;10.55;6.07;;;;;;;;;;334008;29;135080;-79
2021/06/30 01:20:25;;;;;;;10.60;5.70;;;;;;;;;;333811;29;137710;-79
2021/06/30 01:20:42;;;;;;;9.75;5.80;;;;;;;;;;333928;29;137646;-79
2021/06/30 01:21:00;;;;;;;8.16;6.04;;;;;;;;;;337997;28;159801;-79
2021/06/30 01:21:17;;;;;;;8.32;6.30;;;;;;;;;;344452;28;137759;-79
2021/06/30 01:21:29;;;;;;;8.57;6.22;;;;;;;;;;342341;28;46285;-80
2021/06/30 01:21:48;;;;;;;10.13;6.20;;;;;;;;;;338848;28;159301;-80
2021/06/30 01:22:01;;;;;;;10.10;6.32;;;;;;;;;;338074;29;91965;-80
2021/06/30 01:22:18;;;;;;;9.88;6.15;;;;;;;;;;337901;28;136917;-80
2021/06/30 01:22:35;;;;;;;11.15;6.25;;;;;;;;;;337895;28;137627;-80
2021/06/30 01:23:08;;;;;;;10.13;6.13;;;;;;;;;;338286;28;137649;-80
2021/06/30 01:23:20;;;;;;;9.75;6.47;;;;;;;;;;337930;28;136490;-80
2021/06/30 01:23:38;;;;;;;9.95;6.40;;;;;;;;;;341825;28;136954;-80
2021/06/30 01:23:56;;;;;;;9.70;6.03;;;;;;;;;;340575;28;137640;-80
2021/06/30 01:24:13;;;;;;;10.05;5.03;;;;;;;;;;343119;28;137757;-79
2021/06/30 01:24:25;;;;;;;10.75;5.15;;;;;;;;;;340412;28;66058;-80
2021/06/30 01:24:38;;;;;;;10.50;6.18;;;;;;;;;;338346;29;46051;-79
2021/06/30 01:24:55;;;;;;;9.68;6.40;;;;;;;;;;335142;29;136751;-80
2021/06/30 01:25:12;;;;;;;12.88;6.47;;;;;;;;;;335366;29;136930;-79
2021/06/30 01:25:25;;;;;;;13.10;6.32;;;;;;;;;;336081;29;68965;-79
2021/06/30 01:25:42;;;;;;;9.98;5.60;;;;;;;;;;333681;29;137631;-79
2021/06/30 01:25:55;;;;;;;9.02;5.05;;;;;;;;;;334646;29;68976;-79
2021/06/30 01:26:07;;;;;;;9.90;5.63;;;;;;;;;;335656;29;46059;-79
2021/06/30 01:26:25;;;;;;;11.70;6.25;;;;;;;;;;333542;29;137695;-79
2021/06/30 01:26:37;;;;;;;11.38;6.38;;;;;;;;;;336940;29;45428;-80
2021/06/30 01:26:54;;;;;;;10.15;6.40;;;;;;;;;;334338;29;160552;-80
2021/06/30 01:27:13;;;;;;;9.85;6.38;;;;;;;;;;334992;29;138792;-79
2021/06/30 01:27:32;;;;;;;8.73;6.38;;;;;;;;;;336359;29;135150;-80
2021/06/30 01:27:45;;;;;;;8.82;6.18;;;;;;;;;;335477;29;90773;-80
2021/06/30 01:28:02;;;;;;;11.32;6.45;;;;;;;;;;333857;29;137368;-80
2021/06/30 01:28:20;;;;;;;11.77;6.50;;;;;;;;;;336437;29;135142;-79
2021/06/30 01:28:37;;;;;;;10.77;6.30;;;;;;;;;;337650;28;137716;-80
2021/06/30 01:28:49;;;;;;;10.55;6.25;;;;;;;;;;338369;29;46137;-80
2021/06/30 01:29:07;;;;;;;11.55;5.88;;;;;;;;;;335188;29;137750;-80
2021/06/30 01:29:24;;;;;;;11.23;5.72;;;;;;;;;;334533;29;159790;-80
2021/06/30 01:29:43;;;;;;;8.88;5.35;;;;;;;;;;337450;28;137592;-79
2021/06/30 01:30:00;;;;;;;8.00;4.57;;;;;;;;;;343099;28;137760;-80
2021/06/30 01:30:17;;;;;;;9.95;5.65;;;;;;;;;;343191;28;136808;-79
2021/06/30 01:30:35;;;;;;;11.02;6.65;;;;;;;;;;342864;28;137606;-80
2021/06/30 01:30:53;;;;;;;9.55;6.45;;;;;;;;;;345995;28;135763;-79
2021/06/30 01:31:10;;;;;;;9.57;6.15;;;;;;;;;;347217;28;136871;-80
2021/06/30 01:31:27;;;;;;;10.00;6.45;;;;;;;;;;345782;28;137848;-80
2021/06/30 01:31:45;;;;;;;9.95;6.70;;;;;;;;;;345966;28;136883;-79
2021/06/30 01:31:57;;;;;;;9.25;6.60;;;;;;;;;;349425;28;44947;-79
2021/06/30 01:32:09;;;;;;;10.60;6.75;;;;;;;;;;346856;28;46065;-80
2021/06/30 01:32:26;;;;;;;12.32;7.36;;;;;;;;;;343565;28;160729;-79
2021/06/30 01:32:44;;;;;;;12.75;7.45;;;;;;;;;;344684;28;137768;-79
2021/06/30 01:32:56;;;;;;;12.00;6.90;;;;;;;;;;344787;28;44838;-80
2021/06/30 01:33:13;;;;;;;11.27;7.10;;;;;;;;;;340287;28;136850;-80
2021/06/30 01:33:31;;;;;;;10.50;7.20;;;;;;;;;;339192;28;137093;-80
2021/06/30 01:33:48;;;;;;;10.38;6.62;;;;;;;;;;338412;28;159823;-79